FIN2HA EGPH-EFHK
Flight info
| Callsign | FIN2HA |
|---|---|
| Flight time | 2h 23m |
| Altitude | 37000 |
| Route | GRICE4D GRICE P600 ASNUD DCT ALOTI DCT RIVEX DCT PIPEX DCT VATEX DCT IBVUT Y363 LAKUT LAKUT7A |
| Aircraft | A319/M-SDE3FGHIRWY/LB1 |
Departure
| Time | 2026-04-22 14:11 |
|---|---|
| Airport | Edinburgh Airport (EGPH) |
Arrival
| Time | 2026-04-22 16:34 |
|---|---|
| Airport | Helsinki Vantaa Airport (EFHK) |
| Time | Latitude | Longitude | Altitude | Speed | Heading |
|---|---|---|---|---|---|
| 2026-04-22 13:42 | 55.94613 | -3.36621 | 106 ft | 0 kts | 89° |
| 2026-04-22 13:57 | 55.94613 | -3.36622 | 106 ft | 1 kts | 89° |
| 2026-04-22 13:58 | 55.94612 | -3.36666 | 106 ft | 4 kts | 84° |
| 2026-04-22 13:58 | 55.94607 | -3.36712 | 104 ft | 4 kts | 59° |
| 2026-04-22 13:58 | 55.94593 | -3.36733 | 104 ft | 1 kts | 359° |
| 2026-04-22 14:01 | 55.94596 | -3.36733 | 133 ft | 2 kts | 359° |
| 2026-04-22 14:01 | 55.94643 | -3.36734 | 107 ft | 9 kts | 359° |
| 2026-04-22 14:02 | 55.94714 | -3.36735 | 106 ft | 11 kts | 360° |
| 2026-04-22 14:02 | 55.94794 | -3.36775 | 105 ft | 13 kts | 345° |
| 2026-04-22 14:02 | 55.94885 | -3.36789 | 105 ft | 13 kts | 335° |
| 2026-04-22 14:02 | 55.94924 | -3.36896 | 104 ft | 12 kts | 249° |
| 2026-04-22 14:03 | 55.94881 | -3.37030 | 105 ft | 12 kts | 239° |
| 2026-04-22 14:03 | 55.94837 | -3.37160 | 105 ft | 13 kts | 239° |
| 2026-04-22 14:03 | 55.94790 | -3.37295 | 106 ft | 13 kts | 239° |
| 2026-04-22 14:03 | 55.94743 | -3.37434 | 109 ft | 13 kts | 239° |
| 2026-04-22 14:04 | 55.94699 | -3.37564 | 110 ft | 12 kts | 239° |
| 2026-04-22 14:04 | 55.94658 | -3.37684 | 113 ft | 14 kts | 238° |
| 2026-04-22 14:04 | 55.94585 | -3.37900 | 111 ft | 23 kts | 239° |
| 2026-04-22 14:04 | 55.94503 | -3.38142 | 110 ft | 23 kts | 239° |
| 2026-04-22 14:05 | 55.94422 | -3.38379 | 113 ft | 22 kts | 238° |
| 2026-04-22 14:05 | 55.94357 | -3.38570 | 114 ft | 15 kts | 239° |
| 2026-04-22 14:05 | 55.94282 | -3.38847 | 120 ft | 9 kts | 289° |
| 2026-04-22 14:06 | 55.94321 | -3.38902 | 120 ft | 1 kts | 330° |
| 2026-04-22 14:06 | 55.94322 | -3.38903 | 120 ft | 0 kts | 330° |
| 2026-04-22 14:09 | 55.94323 | -3.38903 | 120 ft | 1 kts | 330° |
| 2026-04-22 14:09 | 55.94355 | -3.38936 | 116 ft | 10 kts | 330° |
| 2026-04-22 14:09 | 55.94421 | -3.38945 | 115 ft | 10 kts | 46° |
| 2026-04-22 14:09 | 55.94437 | -3.38900 | 117 ft | 0 kts | 59° |
| 2026-04-22 14:10 | 55.94441 | -3.38889 | 117 ft | 5 kts | 59° |
| 2026-04-22 14:10 | 55.94578 | -3.38484 | 113 ft | 76 kts | 59° |
| 2026-04-22 14:10 | 55.94967 | -3.37339 | 109 ft | 138 kts | 59° |
| 2026-04-22 14:11 | 55.95469 | -3.35826 | 678 ft | 141 kts | 61° |
| 2026-04-22 14:11 | 55.95981 | -3.34318 | 1388 ft | 146 kts | 56° |
| 2026-04-22 14:11 | 55.96787 | -3.32956 | 1774 ft | 173 kts | 44° |
| 2026-04-22 14:11 | 55.97751 | -3.31475 | 2204 ft | 194 kts | 44° |
| 2026-04-22 14:12 | 55.98825 | -3.29761 | 2633 ft | 219 kts | 45° |
| 2026-04-22 14:12 | 56.00105 | -3.28027 | 3213 ft | 244 kts | 31° |
| 2026-04-22 14:12 | 56.01788 | -3.27079 | 3960 ft | 264 kts | 10° |
| 2026-04-22 14:12 | 56.03019 | -3.27101 | 4518 ft | 271 kts | 353° |
| 2026-04-22 14:13 | 56.05385 | -3.28840 | 5726 ft | 282 kts | 328° |
| 2026-04-22 14:13 | 56.07062 | -3.30725 | 6673 ft | 286 kts | 328° |
| 2026-04-22 14:13 | 56.08758 | -3.32644 | 7551 ft | 291 kts | 328° |
| 2026-04-22 14:13 | 56.10473 | -3.34589 | 8462 ft | 293 kts | 328° |
| 2026-04-22 14:14 | 56.12211 | -3.36563 | 9324 ft | 298 kts | 328° |
| 2026-04-22 14:14 | 56.13964 | -3.38556 | 10246 ft | 300 kts | 328° |
| 2026-04-22 14:14 | 56.15760 | -3.40607 | 10815 ft | 315 kts | 327° |
| 2026-04-22 14:14 | 56.17679 | -3.42801 | 11085 ft | 339 kts | 327° |
| 2026-04-22 14:15 | 56.19741 | -3.45156 | 11318 ft | 363 kts | 327° |
| 2026-04-22 14:15 | 56.21901 | -3.47624 | 11679 ft | 378 kts | 327° |
| 2026-04-22 14:15 | 56.24234 | -3.50044 | 12351 ft | 385 kts | 335° |
| 2026-04-22 14:15 | 56.26752 | -3.51501 | 13113 ft | 387 kts | 349° |
| 2026-04-22 14:16 | 56.29447 | -3.51890 | 13844 ft | 391 kts | 3° |
| 2026-04-22 14:16 | 56.32133 | -3.51111 | 14538 ft | 393 kts | 18° |
| 2026-04-22 14:16 | 56.34645 | -3.49182 | 15190 ft | 394 kts | 32° |
| 2026-04-22 14:16 | 56.36914 | -3.46378 | 15841 ft | 396 kts | 38° |
| 2026-04-22 14:17 | 56.39114 | -3.43516 | 16508 ft | 398 kts | 38° |
| 2026-04-22 14:17 | 56.41369 | -3.40579 | 17168 ft | 401 kts | 38° |
| 2026-04-22 14:17 | 56.43642 | -3.37623 | 17799 ft | 405 kts | 38° |
| 2026-04-22 14:17 | 56.45955 | -3.34654 | 18417 ft | 409 kts | 37° |
| 2026-04-22 14:18 | 56.48312 | -3.31720 | 19012 ft | 413 kts | 36° |
| 2026-04-22 14:18 | 56.50703 | -3.28792 | 19532 ft | 417 kts | 36° |
| 2026-04-22 14:18 | 56.53120 | -3.25844 | 20052 ft | 420 kts | 36° |
| 2026-04-22 14:18 | 56.55554 | -3.22857 | 20585 ft | 423 kts | 36° |
| 2026-04-22 14:19 | 56.57997 | -3.19841 | 21114 ft | 426 kts | 36° |
| 2026-04-22 14:19 | 56.60451 | -3.16792 | 21598 ft | 429 kts | 36° |
| 2026-04-22 14:19 | 56.62918 | -3.13715 | 22079 ft | 432 kts | 36° |
| 2026-04-22 14:19 | 56.65392 | -3.10568 | 22556 ft | 435 kts | 39° |
| 2026-04-22 14:20 | 56.69552 | -3.02580 | 23466 ft | 438 kts | 58° |
| 2026-04-22 14:20 | 56.71041 | -2.97832 | 23902 ft | 439 kts | 67° |
| 2026-04-22 14:20 | 56.72190 | -2.92678 | 24293 ft | 441 kts | 71° |
| 2026-04-22 14:21 | 56.74410 | -2.82221 | 25071 ft | 445 kts | 71° |
| 2026-04-22 14:21 | 56.75531 | -2.76936 | 25449 ft | 448 kts | 71° |
| 2026-04-22 14:22 | 56.77789 | -2.66305 | 26168 ft | 453 kts | 71° |
| 2026-04-22 14:22 | 56.78929 | -2.60935 | 26517 ft | 455 kts | 70° |
| 2026-04-22 14:22 | 56.81214 | -2.50108 | 27187 ft | 460 kts | 70° |
| 2026-04-22 14:23 | 56.82359 | -2.44639 | 27531 ft | 461 kts | 71° |
| 2026-04-22 14:23 | 56.83499 | -2.39168 | 27926 ft | 461 kts | 71° |
| 2026-04-22 14:23 | 56.84637 | -2.33687 | 28252 ft | 463 kts | 72° |
| 2026-04-22 14:23 | 56.85778 | -2.28178 | 28646 ft | 463 kts | 73° |
| 2026-04-22 14:24 | 56.86916 | -2.22682 | 29078 ft | 462 kts | 73° |
| 2026-04-22 14:24 | 56.88049 | -2.17198 | 29585 ft | 460 kts | 73° |
| 2026-04-22 14:24 | 56.89172 | -2.11748 | 30054 ft | 458 kts | 73° |
| 2026-04-22 14:24 | 56.90291 | -2.06302 | 30538 ft | 457 kts | 73° |
| 2026-04-22 14:25 | 56.91403 | -2.00866 | 30940 ft | 455 kts | 73° |
| 2026-04-22 14:25 | 56.92511 | -1.95439 | 31301 ft | 455 kts | 73° |
| 2026-04-22 14:25 | 56.93614 | -1.90018 | 31653 ft | 455 kts | 73° |
| 2026-04-22 14:25 | 56.94715 | -1.84587 | 31997 ft | 454 kts | 73° |
| 2026-04-22 14:26 | 56.95811 | -1.79168 | 32347 ft | 454 kts | 73° |
| 2026-04-22 14:26 | 56.96906 | -1.73742 | 32687 ft | 453 kts | 74° |
| 2026-04-22 14:26 | 56.97993 | -1.68350 | 33169 ft | 450 kts | 73° |
| 2026-04-22 14:26 | 56.99072 | -1.62977 | 33560 ft | 449 kts | 73° |
| 2026-04-22 14:27 | 57.00148 | -1.57600 | 33917 ft | 448 kts | 73° |
| 2026-04-22 14:27 | 57.01219 | -1.52232 | 34252 ft | 448 kts | 73° |
| 2026-04-22 14:27 | 57.02277 | -1.46925 | 34582 ft | 448 kts | 73° |
| 2026-04-22 14:27 | 57.03346 | -1.41550 | 34866 ft | 448 kts | 73° |
| 2026-04-22 14:28 | 57.04411 | -1.36170 | 35154 ft | 448 kts | 73° |
| 2026-04-22 14:28 | 57.05472 | -1.30787 | 35450 ft | 448 kts | 73° |
| 2026-04-22 14:28 | 57.06530 | -1.25404 | 35731 ft | 448 kts | 73° |
| 2026-04-22 14:28 | 57.07590 | -1.20023 | 36003 ft | 448 kts | 73° |
| 2026-04-22 14:29 | 57.08648 | -1.14637 | 36290 ft | 446 kts | 73° |
| 2026-04-22 14:29 | 57.09694 | -1.09297 | 36652 ft | 443 kts | 73° |
| 2026-04-22 14:29 | 57.10736 | -1.03958 | 36927 ft | 442 kts | 73° |
| 2026-04-22 14:29 | 57.11770 | -0.98637 | 37222 ft | 440 kts | 73° |
| 2026-04-22 14:30 | 57.12795 | -0.93331 | 37473 ft | 440 kts | 73° |
| 2026-04-22 14:30 | 57.14848 | -0.82677 | 37566 ft | 442 kts | 73° |
| 2026-04-22 14:31 | 57.16901 | -0.71999 | 37570 ft | 442 kts | 73° |
| 2026-04-22 14:31 | 57.18602 | -0.63116 | 37563 ft | 442 kts | 73° |
| 2026-04-22 14:32 | 57.20965 | -0.50662 | 37568 ft | 442 kts | 73° |
| 2026-04-22 14:32 | 57.22988 | -0.39952 | 37560 ft | 442 kts | 73° |
| 2026-04-22 14:33 | 57.24684 | -0.30959 | 37562 ft | 442 kts | 73° |
| 2026-04-22 14:33 | 57.26695 | -0.20215 | 37561 ft | 442 kts | 73° |
| 2026-04-22 14:34 | 57.28689 | -0.09471 | 37563 ft | 442 kts | 73° |
| 2026-04-22 14:34 | 57.30677 | 0.01300 | 37553 ft | 442 kts | 74° |
| 2026-04-22 14:35 | 57.32647 | 0.12043 | 37570 ft | 441 kts | 74° |
| 2026-04-22 14:35 | 57.34603 | 0.22716 | 37573 ft | 440 kts | 74° |
| 2026-04-22 14:36 | 57.36572 | 0.33513 | 37571 ft | 439 kts | 74° |
| 2026-04-22 14:36 | 57.38511 | 0.44251 | 37566 ft | 439 kts | 75° |
| 2026-04-22 14:37 | 57.40431 | 0.54977 | 37570 ft | 438 kts | 75° |
| 2026-04-22 14:37 | 57.42344 | 0.65709 | 37563 ft | 437 kts | 75° |
| 2026-04-22 14:38 | 57.44232 | 0.76331 | 37579 ft | 436 kts | 75° |
| 2026-04-22 14:38 | 57.46123 | 0.87021 | 37576 ft | 435 kts | 75° |
| 2026-04-22 14:39 | 57.47999 | 0.97692 | 37574 ft | 434 kts | 75° |
| 2026-04-22 14:39 | 57.49862 | 1.08378 | 37566 ft | 434 kts | 75° |
| 2026-04-22 14:40 | 57.52624 | 1.24394 | 37561 ft | 433 kts | 75° |
| 2026-04-22 14:40 | 57.54461 | 1.35054 | 37570 ft | 432 kts | 75° |
| 2026-04-22 14:41 | 57.56283 | 1.45697 | 37566 ft | 431 kts | 75° |
| 2026-04-22 14:41 | 57.58089 | 1.56316 | 37564 ft | 430 kts | 76° |
| 2026-04-22 14:42 | 57.59882 | 1.66935 | 37563 ft | 429 kts | 76° |
| 2026-04-22 14:42 | 57.61660 | 1.77567 | 37561 ft | 429 kts | 76° |
| 2026-04-22 14:43 | 57.63431 | 1.88195 | 37558 ft | 428 kts | 76° |
| 2026-04-22 14:43 | 57.65182 | 1.98797 | 37557 ft | 426 kts | 76° |
| 2026-04-22 14:44 | 57.66910 | 2.09282 | 37563 ft | 425 kts | 76° |
| 2026-04-22 14:44 | 57.68640 | 2.19806 | 37543 ft | 423 kts | 77° |
| 2026-04-22 14:45 | 57.70357 | 2.30329 | 37538 ft | 422 kts | 77° |
| 2026-04-22 14:45 | 57.72056 | 2.40835 | 37535 ft | 422 kts | 77° |
| 2026-04-22 14:46 | 57.73748 | 2.51330 | 37533 ft | 420 kts | 77° |
| 2026-04-22 14:46 | 57.75434 | 2.61806 | 37538 ft | 419 kts | 77° |
| 2026-04-22 14:47 | 57.77091 | 2.72247 | 37527 ft | 418 kts | 77° |
| 2026-04-22 14:47 | 57.78736 | 2.82686 | 37532 ft | 417 kts | 77° |
| 2026-04-22 14:48 | 57.80366 | 2.93106 | 37528 ft | 417 kts | 77° |
| 2026-04-22 14:48 | 57.81988 | 3.03546 | 37526 ft | 417 kts | 77° |
| 2026-04-22 14:49 | 57.83606 | 3.13955 | 37531 ft | 415 kts | 77° |
| 2026-04-22 14:49 | 57.85211 | 3.24357 | 37521 ft | 414 kts | 78° |
| 2026-04-22 14:50 | 57.86809 | 3.34747 | 37519 ft | 413 kts | 78° |
| 2026-04-22 14:50 | 57.88388 | 3.45112 | 37499 ft | 412 kts | 78° |
| 2026-04-22 14:51 | 57.89934 | 3.55396 | 37512 ft | 411 kts | 78° |
| 2026-04-22 14:51 | 57.91542 | 3.65714 | 37513 ft | 412 kts | 76° |
| 2026-04-22 14:52 | 57.93452 | 3.75871 | 37508 ft | 412 kts | 73° |
| 2026-04-22 14:52 | 57.95435 | 3.85986 | 37510 ft | 411 kts | 74° |
| 2026-04-22 14:53 | 57.97344 | 3.96109 | 37498 ft | 409 kts | 75° |
| 2026-04-22 14:53 | 57.99196 | 4.06233 | 37497 ft | 409 kts | 75° |
| 2026-04-22 14:54 | 58.01039 | 4.16370 | 37485 ft | 408 kts | 75° |
| 2026-04-22 14:54 | 58.02880 | 4.26503 | 37483 ft | 408 kts | 75° |
| 2026-04-22 14:55 | 58.04713 | 4.36642 | 37491 ft | 408 kts | 75° |
| 2026-04-22 14:55 | 58.06535 | 4.46778 | 37475 ft | 407 kts | 75° |
| 2026-04-22 14:56 | 58.08347 | 4.56903 | 37478 ft | 407 kts | 75° |
| 2026-04-22 14:56 | 58.10156 | 4.67041 | 37461 ft | 406 kts | 75° |
| 2026-04-22 14:57 | 58.11951 | 4.77162 | 37453 ft | 406 kts | 75° |
| 2026-04-22 14:57 | 58.13732 | 4.87291 | 37457 ft | 405 kts | 75° |
| 2026-04-22 14:58 | 58.15503 | 4.97408 | 37441 ft | 404 kts | 75° |
| 2026-04-22 14:58 | 58.17252 | 5.07442 | 37444 ft | 404 kts | 75° |
| 2026-04-22 14:59 | 58.19005 | 5.17556 | 37446 ft | 404 kts | 75° |
| 2026-04-22 14:59 | 58.20746 | 5.27670 | 37430 ft | 403 kts | 75° |
| 2026-04-22 15:00 | 58.22476 | 5.37788 | 37435 ft | 403 kts | 75° |
| 2026-04-22 15:00 | 58.24200 | 5.47908 | 37414 ft | 403 kts | 75° |
| 2026-04-22 15:01 | 58.25916 | 5.58040 | 37412 ft | 403 kts | 75° |
| 2026-04-22 15:01 | 58.27621 | 5.68183 | 37412 ft | 403 kts | 75° |
| 2026-04-22 15:02 | 58.29322 | 5.78331 | 37391 ft | 403 kts | 75° |
| 2026-04-22 15:02 | 58.31018 | 5.88488 | 37395 ft | 403 kts | 75° |
| 2026-04-22 15:03 | 58.32689 | 5.98590 | 37393 ft | 403 kts | 75° |
| 2026-04-22 15:03 | 58.34365 | 6.08778 | 37373 ft | 403 kts | 75° |
| 2026-04-22 15:04 | 58.36031 | 6.18971 | 37388 ft | 403 kts | 75° |
| 2026-04-22 15:04 | 58.37691 | 6.29194 | 37355 ft | 404 kts | 75° |
| 2026-04-22 15:05 | 58.39346 | 6.39415 | 37359 ft | 404 kts | 75° |
| 2026-04-22 15:05 | 58.40991 | 6.49668 | 37331 ft | 404 kts | 75° |
| 2026-04-22 15:06 | 58.42691 | 6.59878 | 37334 ft | 405 kts | 73° |
| 2026-04-22 15:06 | 58.44581 | 6.70000 | 37334 ft | 405 kts | 72° |
| 2026-04-22 15:07 | 58.46488 | 6.80119 | 37312 ft | 405 kts | 73° |
| 2026-04-22 15:07 | 58.48343 | 6.90282 | 37321 ft | 405 kts | 73° |
| 2026-04-22 15:08 | 58.50167 | 7.00456 | 37303 ft | 405 kts | 73° |
| 2026-04-22 15:08 | 58.51980 | 7.10648 | 37311 ft | 405 kts | 73° |
| 2026-04-22 15:09 | 58.53780 | 7.20780 | 37312 ft | 405 kts | 73° |
| 2026-04-22 15:09 | 58.55579 | 7.30982 | 37296 ft | 405 kts | 73° |
| 2026-04-22 15:10 | 58.57377 | 7.41214 | 37296 ft | 405 kts | 73° |
| 2026-04-22 15:10 | 58.59166 | 7.51442 | 37293 ft | 405 kts | 73° |
| 2026-04-22 15:11 | 58.60955 | 7.61668 | 37285 ft | 404 kts | 73° |
| 2026-04-22 15:11 | 58.62733 | 7.71901 | 37280 ft | 404 kts | 73° |
| 2026-04-22 15:12 | 58.64493 | 7.82155 | 37262 ft | 404 kts | 73° |
| 2026-04-22 15:12 | 58.66244 | 7.92412 | 37260 ft | 404 kts | 73° |
| 2026-04-22 15:13 | 58.67991 | 8.02698 | 37261 ft | 404 kts | 73° |
| 2026-04-22 15:13 | 58.69714 | 8.12915 | 37251 ft | 405 kts | 73° |
| 2026-04-22 15:14 | 58.71448 | 8.23206 | 37254 ft | 405 kts | 73° |
| 2026-04-22 15:14 | 58.73174 | 8.33520 | 37249 ft | 404 kts | 73° |
| 2026-04-22 15:15 | 58.74889 | 8.43831 | 37247 ft | 404 kts | 73° |
| 2026-04-22 15:15 | 58.76599 | 8.54145 | 37235 ft | 404 kts | 74° |
| 2026-04-22 15:16 | 58.78298 | 8.64467 | 37233 ft | 404 kts | 74° |
| 2026-04-22 15:16 | 58.79983 | 8.74808 | 37238 ft | 404 kts | 74° |
| 2026-04-22 15:17 | 58.81654 | 8.85143 | 37240 ft | 404 kts | 74° |
| 2026-04-22 15:17 | 58.83324 | 8.95483 | 37255 ft | 403 kts | 74° |
| 2026-04-22 15:18 | 58.84989 | 9.05826 | 37255 ft | 403 kts | 73° |
| 2026-04-22 15:18 | 58.86476 | 9.14342 | 37253 ft | 403 kts | 72° |
| 2026-04-22 15:19 | 58.88379 | 9.24518 | 37255 ft | 403 kts | 72° |
| 2026-04-22 15:19 | 58.90261 | 9.34717 | 37253 ft | 402 kts | 72° |
| 2026-04-22 15:20 | 58.92097 | 9.44943 | 37251 ft | 402 kts | 72° |
| 2026-04-22 15:20 | 58.93915 | 9.55182 | 37249 ft | 402 kts | 72° |
| 2026-04-22 15:21 | 58.95723 | 9.65425 | 37256 ft | 402 kts | 72° |
| 2026-04-22 15:21 | 58.97524 | 9.75677 | 37247 ft | 402 kts | 72° |
| 2026-04-22 15:22 | 58.99317 | 9.85935 | 37246 ft | 402 kts | 72° |
| 2026-04-22 15:22 | 59.01109 | 9.96218 | 37242 ft | 402 kts | 72° |
| 2026-04-22 15:23 | 59.02892 | 10.06504 | 37246 ft | 402 kts | 72° |
| 2026-04-22 15:23 | 59.04665 | 10.16794 | 37246 ft | 402 kts | 72° |
| 2026-04-22 15:24 | 59.06431 | 10.27106 | 37263 ft | 402 kts | 72° |
| 2026-04-22 15:24 | 59.08188 | 10.37420 | 37324 ft | 402 kts | 72° |
| 2026-04-22 15:25 | 59.09931 | 10.47738 | 37372 ft | 402 kts | 72° |
| 2026-04-22 15:25 | 59.11666 | 10.58063 | 37425 ft | 401 kts | 72° |
| 2026-04-22 15:26 | 59.13397 | 10.68406 | 37468 ft | 401 kts | 72° |
| 2026-04-22 15:26 | 59.15111 | 10.78689 | 37500 ft | 401 kts | 72° |
| 2026-04-22 15:27 | 59.16828 | 10.89046 | 37498 ft | 401 kts | 72° |
| 2026-04-22 15:27 | 59.18531 | 10.99417 | 37497 ft | 401 kts | 72° |
| 2026-04-22 15:28 | 59.20223 | 11.09801 | 37457 ft | 401 kts | 72° |
| 2026-04-22 15:28 | 59.21914 | 11.20179 | 37409 ft | 401 kts | 72° |
| 2026-04-22 15:29 | 59.22760 | 11.25372 | 37246 ft | 401 kts | 72° |
| 2026-04-22 15:29 | 59.23604 | 11.30562 | 37238 ft | 401 kts | 72° |
| 2026-04-22 15:30 | 59.26100 | 11.46183 | 37231 ft | 401 kts | 72° |
| 2026-04-22 15:30 | 59.27759 | 11.56601 | 37233 ft | 401 kts | 72° |
| 2026-04-22 15:31 | 59.29412 | 11.67026 | 37246 ft | 401 kts | 72° |
| 2026-04-22 15:31 | 59.31049 | 11.77466 | 37229 ft | 401 kts | 72° |
| 2026-04-22 15:32 | 59.32651 | 11.87868 | 37227 ft | 401 kts | 72° |
| 2026-04-22 15:32 | 59.34213 | 11.98368 | 37205 ft | 401 kts | 72° |
| 2026-04-22 15:33 | 59.35761 | 12.08879 | 37204 ft | 402 kts | 72° |
| 2026-04-22 15:33 | 59.37311 | 12.19424 | 37203 ft | 402 kts | 72° |
| 2026-04-22 15:34 | 59.38854 | 12.29973 | 37195 ft | 402 kts | 72° |
| 2026-04-22 15:34 | 59.40383 | 12.40534 | 37195 ft | 403 kts | 72° |
| 2026-04-22 15:35 | 59.41908 | 12.51110 | 37189 ft | 403 kts | 72° |
| 2026-04-22 15:35 | 59.43429 | 12.61705 | 37189 ft | 403 kts | 72° |
| 2026-04-22 15:36 | 59.44939 | 12.72294 | 37187 ft | 403 kts | 73° |
| 2026-04-22 15:36 | 59.46441 | 12.82912 | 37191 ft | 403 kts | 73° |
| 2026-04-22 15:37 | 59.47933 | 12.93535 | 37189 ft | 403 kts | 73° |
| 2026-04-22 15:37 | 59.49417 | 13.04162 | 37190 ft | 403 kts | 73° |
| 2026-04-22 15:38 | 59.50893 | 13.14816 | 37192 ft | 403 kts | 72° |
| 2026-04-22 15:38 | 59.53089 | 13.30783 | 37184 ft | 402 kts | 72° |
| 2026-04-22 15:39 | 59.54533 | 13.41359 | 37182 ft | 402 kts | 72° |
| 2026-04-22 15:39 | 59.55976 | 13.52010 | 37179 ft | 402 kts | 72° |
| 2026-04-22 15:40 | 59.57410 | 13.62668 | 37176 ft | 402 kts | 72° |
| 2026-04-22 15:40 | 59.58829 | 13.73342 | 37171 ft | 402 kts | 72° |
| 2026-04-22 15:41 | 59.60243 | 13.84023 | 37199 ft | 402 kts | 72° |
| 2026-04-22 15:41 | 59.61652 | 13.94696 | 37188 ft | 402 kts | 72° |
| 2026-04-22 15:42 | 59.63055 | 14.05394 | 37173 ft | 402 kts | 72° |
| 2026-04-22 15:42 | 59.64443 | 14.16088 | 37165 ft | 402 kts | 72° |
| 2026-04-22 15:43 | 59.65822 | 14.26780 | 37155 ft | 402 kts | 72° |
| 2026-04-22 15:43 | 59.67195 | 14.37494 | 37148 ft | 402 kts | 72° |
| 2026-04-22 15:44 | 59.68561 | 14.48222 | 37134 ft | 402 kts | 72° |
| 2026-04-22 15:44 | 59.69911 | 14.58965 | 37144 ft | 403 kts | 72° |
| 2026-04-22 15:45 | 59.71258 | 14.69728 | 37138 ft | 403 kts | 72° |
| 2026-04-22 15:45 | 59.72600 | 14.80523 | 37136 ft | 403 kts | 72° |
| 2026-04-22 15:46 | 59.73932 | 14.91322 | 37122 ft | 403 kts | 72° |
| 2026-04-22 15:46 | 59.75257 | 15.02138 | 37123 ft | 403 kts | 72° |
| 2026-04-22 15:47 | 59.76579 | 15.12948 | 37111 ft | 404 kts | 72° |
| 2026-04-22 15:47 | 59.77886 | 15.23786 | 37112 ft | 404 kts | 72° |
| 2026-04-22 15:48 | 59.79184 | 15.34619 | 37132 ft | 404 kts | 72° |
| 2026-04-22 15:48 | 59.80476 | 15.45501 | 37112 ft | 404 kts | 72° |
| 2026-04-22 15:49 | 59.81756 | 15.56381 | 37104 ft | 405 kts | 72° |
| 2026-04-22 15:49 | 59.83026 | 15.67270 | 37078 ft | 405 kts | 72° |
| 2026-04-22 15:50 | 59.84296 | 15.78205 | 37068 ft | 406 kts | 72° |
| 2026-04-22 15:50 | 59.85559 | 15.89177 | 37069 ft | 407 kts | 72° |
| 2026-04-22 15:51 | 59.86814 | 16.00179 | 37092 ft | 408 kts | 72° |
| 2026-04-22 15:51 | 59.88068 | 16.11191 | 37094 ft | 408 kts | 72° |
| 2026-04-22 15:52 | 59.89311 | 16.22241 | 37081 ft | 409 kts | 72° |
| 2026-04-22 15:52 | 59.90544 | 16.33308 | 37070 ft | 409 kts | 72° |
| 2026-04-22 15:53 | 59.91764 | 16.44385 | 37071 ft | 409 kts | 72° |
| 2026-04-22 15:53 | 59.92972 | 16.55392 | 37069 ft | 409 kts | 72° |
| 2026-04-22 15:54 | 59.94180 | 16.66484 | 37055 ft | 409 kts | 72° |
| 2026-04-22 15:54 | 59.95380 | 16.77598 | 37092 ft | 410 kts | 72° |
| 2026-04-22 15:55 | 59.96571 | 16.88735 | 37059 ft | 410 kts | 72° |
| 2026-04-22 15:55 | 59.97751 | 16.99892 | 37040 ft | 412 kts | 72° |
| 2026-04-22 15:56 | 59.98933 | 17.11101 | 37029 ft | 413 kts | 72° |
| 2026-04-22 15:56 | 60.00103 | 17.22338 | 37026 ft | 414 kts | 72° |
| 2026-04-22 15:57 | 60.01263 | 17.33614 | 37031 ft | 414 kts | 72° |
| 2026-04-22 15:57 | 60.02416 | 17.44906 | 37031 ft | 414 kts | 72° |
| 2026-04-22 15:58 | 60.03567 | 17.56195 | 37062 ft | 415 kts | 72° |
| 2026-04-22 15:58 | 60.04701 | 17.67516 | 37055 ft | 415 kts | 72° |
| 2026-04-22 15:59 | 60.05825 | 17.78838 | 37051 ft | 415 kts | 72° |
| 2026-04-22 15:59 | 60.06937 | 17.90088 | 37054 ft | 415 kts | 72° |
| 2026-04-22 16:00 | 60.08042 | 18.01426 | 37054 ft | 415 kts | 72° |
| 2026-04-22 16:00 | 60.09139 | 18.12756 | 37050 ft | 415 kts | 72° |
| 2026-04-22 16:01 | 60.10230 | 18.24141 | 37030 ft | 416 kts | 73° |
| 2026-04-22 16:01 | 60.11308 | 18.35563 | 37057 ft | 417 kts | 72° |
| 2026-04-22 16:02 | 60.12381 | 18.47012 | 37037 ft | 418 kts | 72° |
| 2026-04-22 16:02 | 60.13276 | 18.56549 | 37031 ft | 418 kts | 72° |
| 2026-04-22 16:03 | 60.14341 | 18.68031 | 37030 ft | 419 kts | 72° |
| 2026-04-22 16:03 | 60.15392 | 18.79540 | 37025 ft | 419 kts | 73° |
| 2026-04-22 16:04 | 60.16432 | 18.91065 | 37030 ft | 420 kts | 73° |
| 2026-04-22 16:04 | 60.17463 | 19.02606 | 37052 ft | 420 kts | 72° |
| 2026-04-22 16:05 | 60.18491 | 19.14164 | 37020 ft | 420 kts | 72° |
| 2026-04-22 16:05 | 60.19507 | 19.25737 | 37011 ft | 421 kts | 72° |
| 2026-04-22 16:06 | 60.20510 | 19.37325 | 37002 ft | 421 kts | 72° |
| 2026-04-22 16:06 | 60.21506 | 19.48943 | 37004 ft | 422 kts | 72° |
| 2026-04-22 16:07 | 60.22497 | 19.60573 | 37009 ft | 422 kts | 73° |
| 2026-04-22 16:07 | 60.23472 | 19.72230 | 36985 ft | 422 kts | 73° |
| 2026-04-22 16:08 | 60.24439 | 19.83892 | 36986 ft | 422 kts | 73° |
| 2026-04-22 16:08 | 60.25401 | 19.95559 | 36986 ft | 422 kts | 73° |
| 2026-04-22 16:09 | 60.26351 | 20.07239 | 36987 ft | 423 kts | 73° |
| 2026-04-22 16:09 | 60.27281 | 20.18928 | 36987 ft | 423 kts | 73° |
| 2026-04-22 16:10 | 60.28205 | 20.30635 | 36988 ft | 423 kts | 73° |
| 2026-04-22 16:10 | 60.29126 | 20.42337 | 36989 ft | 423 kts | 73° |
| 2026-04-22 16:11 | 60.30033 | 20.53983 | 37008 ft | 423 kts | 73° |
| 2026-04-22 16:11 | 60.30928 | 20.65701 | 36976 ft | 422 kts | 73° |
| 2026-04-22 16:12 | 60.31818 | 20.77442 | 36938 ft | 424 kts | 73° |
| 2026-04-22 16:12 | 60.32703 | 20.89253 | 36926 ft | 426 kts | 73° |
| 2026-04-22 16:13 | 60.33581 | 21.01110 | 36929 ft | 428 kts | 73° |
| 2026-04-22 16:13 | 60.34450 | 21.13005 | 36937 ft | 429 kts | 73° |
| 2026-04-22 16:14 | 60.35308 | 21.24928 | 36930 ft | 429 kts | 74° |
| 2026-04-22 16:14 | 60.36130 | 21.36883 | 36970 ft | 431 kts | 75° |
| 2026-04-22 16:15 | 60.36678 | 21.49011 | 36945 ft | 435 kts | 77° |
| 2026-04-22 16:15 | 60.37071 | 21.61219 | 36940 ft | 436 kts | 77° |
| 2026-04-22 16:16 | 60.37474 | 21.73366 | 36921 ft | 434 kts | 77° |
| 2026-04-22 16:16 | 60.37927 | 21.85548 | 36907 ft | 434 kts | 77° |
| 2026-04-22 16:17 | 60.38378 | 21.97727 | 36907 ft | 435 kts | 77° |
| 2026-04-22 16:17 | 60.38817 | 22.09926 | 36910 ft | 436 kts | 76° |
| 2026-04-22 16:18 | 60.39246 | 22.22203 | 36888 ft | 439 kts | 77° |
| 2026-04-22 16:18 | 60.39649 | 22.34542 | 36883 ft | 440 kts | 77° |
| 2026-04-22 16:19 | 60.40038 | 22.46899 | 36336 ft | 442 kts | 77° |
| 2026-04-22 16:19 | 60.40233 | 22.53061 | 35416 ft | 446 kts | 77° |
| 2026-04-22 16:19 | 60.40430 | 22.59333 | 34406 ft | 448 kts | 77° |
| 2026-04-22 16:20 | 60.40626 | 22.65636 | 33318 ft | 449 kts | 77° |
| 2026-04-22 16:20 | 60.40821 | 22.71952 | 32127 ft | 450 kts | 77° |
| 2026-04-22 16:20 | 60.41010 | 22.78250 | 31298 ft | 447 kts | 77° |
| 2026-04-22 16:20 | 60.41192 | 22.84501 | 30719 ft | 444 kts | 77° |
| 2026-04-22 16:21 | 60.41377 | 22.90785 | 29071 ft | 452 kts | 77° |
| 2026-04-22 16:21 | 60.41569 | 22.97176 | 27697 ft | 455 kts | 77° |
| 2026-04-22 16:21 | 60.41750 | 23.03553 | 26479 ft | 453 kts | 78° |
| 2026-04-22 16:21 | 60.41923 | 23.09920 | 25279 ft | 452 kts | 78° |
| 2026-04-22 16:22 | 60.42249 | 23.22583 | 22967 ft | 450 kts | 78° |
| 2026-04-22 16:22 | 60.42412 | 23.28896 | 21840 ft | 447 kts | 78° |
| 2026-04-22 16:22 | 60.42518 | 23.35152 | 20871 ft | 446 kts | 83° |
| 2026-04-22 16:23 | 60.40990 | 23.47568 | 18515 ft | 457 kts | 100° |
| 2026-04-22 16:23 | 60.39980 | 23.53626 | 17313 ft | 453 kts | 100° |
| 2026-04-22 16:23 | 60.38966 | 23.59609 | 16582 ft | 440 kts | 100° |
| 2026-04-22 16:24 | 60.38001 | 23.65223 | 16138 ft | 419 kts | 100° |
| 2026-04-22 16:24 | 60.36138 | 23.76244 | 14338 ft | 408 kts | 100° |
| 2026-04-22 16:24 | 60.35238 | 23.81626 | 13580 ft | 400 kts | 100° |
| 2026-04-22 16:25 | 60.34360 | 23.86853 | 12970 ft | 385 kts | 100° |
| 2026-04-22 16:25 | 60.32684 | 23.96772 | 11920 ft | 357 kts | 100° |
| 2026-04-22 16:25 | 60.31904 | 24.01363 | 11414 ft | 346 kts | 100° |
| 2026-04-22 16:26 | 60.31134 | 24.05890 | 10875 ft | 336 kts | 101° |
| 2026-04-22 16:26 | 60.30382 | 24.10297 | 10380 ft | 327 kts | 101° |
| 2026-04-22 16:26 | 60.29650 | 24.14578 | 9919 ft | 319 kts | 101° |
| 2026-04-22 16:26 | 60.28936 | 24.18761 | 9408 ft | 312 kts | 101° |
| 2026-04-22 16:27 | 60.28241 | 24.22835 | 8878 ft | 304 kts | 101° |
| 2026-04-22 16:27 | 60.27561 | 24.26823 | 8348 ft | 298 kts | 101° |
| 2026-04-22 16:27 | 60.26889 | 24.30748 | 7813 ft | 294 kts | 101° |
| 2026-04-22 16:27 | 60.26224 | 24.34620 | 7298 ft | 291 kts | 102° |
| 2026-04-22 16:28 | 60.25562 | 24.38448 | 6798 ft | 289 kts | 102° |
| 2026-04-22 16:28 | 60.24902 | 24.42247 | 6285 ft | 287 kts | 102° |
| 2026-04-22 16:28 | 60.24247 | 24.46002 | 5738 ft | 283 kts | 102° |
| 2026-04-22 16:28 | 60.23597 | 24.49708 | 5184 ft | 277 kts | 102° |
| 2026-04-22 16:29 | 60.22961 | 24.53325 | 4653 ft | 271 kts | 103° |
| 2026-04-22 16:29 | 60.22339 | 24.56864 | 4128 ft | 266 kts | 103° |
| 2026-04-22 16:29 | 60.21728 | 24.60345 | 3606 ft | 261 kts | 103° |
| 2026-04-22 16:29 | 60.21368 | 24.63775 | 3333 ft | 241 kts | 84° |
| 2026-04-22 16:30 | 60.21413 | 24.65929 | 3183 ft | 226 kts | 73° |
| 2026-04-22 16:30 | 60.22019 | 24.69660 | 2929 ft | 196 kts | 52° |
| 2026-04-22 16:30 | 60.22781 | 24.71781 | 2647 ft | 178 kts | 38° |
| 2026-04-22 16:30 | 60.23591 | 24.73550 | 2412 ft | 166 kts | 38° |
| 2026-04-22 16:31 | 60.24342 | 24.75191 | 2198 ft | 153 kts | 37° |
| 2026-04-22 16:31 | 60.25041 | 24.76717 | 2000 ft | 143 kts | 35° |
| 2026-04-22 16:31 | 60.25697 | 24.78148 | 1807 ft | 135 kts | 34° |
| 2026-04-22 16:31 | 60.26323 | 24.79511 | 1634 ft | 131 kts | 34° |
| 2026-04-22 16:32 | 60.26935 | 24.80844 | 1455 ft | 129 kts | 34° |
| 2026-04-22 16:32 | 60.27538 | 24.82161 | 1277 ft | 127 kts | 37° |
| 2026-04-22 16:32 | 60.28142 | 24.83479 | 1093 ft | 129 kts | 38° |
| 2026-04-22 16:32 | 60.28759 | 24.84818 | 919 ft | 132 kts | 38° |
| 2026-04-22 16:33 | 60.29386 | 24.86181 | 735 ft | 135 kts | 38° |
| 2026-04-22 16:33 | 60.30016 | 24.87592 | 533 ft | 136 kts | 40° |
| 2026-04-22 16:33 | 60.30655 | 24.88993 | 365 ft | 138 kts | 37° |
| 2026-04-22 16:33 | 60.31305 | 24.90410 | 197 ft | 137 kts | 39° |
| 2026-04-22 16:34 | 60.31898 | 24.91692 | 161 ft | 112 kts | 47° |
| 2026-04-22 16:34 | 60.32306 | 24.92607 | 161 ft | 63 kts | 47° |
| 2026-04-22 16:34 | 60.32537 | 24.93118 | 166 ft | 44 kts | 47° |
| 2026-04-22 16:34 | 60.32735 | 24.93553 | 173 ft | 40 kts | 48° |
| 2026-04-22 16:35 | 60.32916 | 24.93953 | 176 ft | 37 kts | 47° |
| 2026-04-22 16:35 | 60.33044 | 24.94253 | 177 ft | 16 kts | 66° |
| 2026-04-22 16:35 | 60.33047 | 24.94499 | 165 ft | 20 kts | 92° |
| 2026-04-22 16:35 | 60.33044 | 24.94612 | 162 ft | 0 kts | 94° |
| 2026-04-22 16:36 | 60.33034 | 24.94648 | 162 ft | 8 kts | 125° |
| 2026-04-22 16:36 | 60.32985 | 24.94742 | 162 ft | 11 kts | 137° |
| 2026-04-22 16:36 | 60.32918 | 24.94867 | 161 ft | 16 kts | 137° |
| 2026-04-22 16:36 | 60.32820 | 24.94961 | 161 ft | 16 kts | 162° |
| 2026-04-22 16:37 | 60.32712 | 24.95031 | 161 ft | 17 kts | 162° |
| 2026-04-22 16:37 | 60.32600 | 24.95104 | 161 ft | 17 kts | 162° |
| 2026-04-22 16:37 | 60.32485 | 24.95177 | 161 ft | 17 kts | 162° |
| 2026-04-22 16:37 | 60.32368 | 24.95256 | 161 ft | 18 kts | 161° |
| 2026-04-22 16:38 | 60.32280 | 24.95374 | 161 ft | 14 kts | 137° |
| 2026-04-22 16:38 | 60.32211 | 24.95506 | 161 ft | 11 kts | 137° |
| 2026-04-22 16:38 | 60.32164 | 24.95592 | 161 ft | 9 kts | 137° |
| 2026-04-22 16:38 | 60.32119 | 24.95676 | 162 ft | 8 kts | 137° |
| 2026-04-22 16:39 | 60.32076 | 24.95757 | 163 ft | 8 kts | 139° |
| 2026-04-22 16:39 | 60.32030 | 24.95835 | 163 ft | 10 kts | 139° |
| 2026-04-22 16:39 | 60.31980 | 24.95927 | 162 ft | 9 kts | 136° |
| 2026-04-22 16:39 | 60.31973 | 24.95941 | 162 ft | 3 kts | 136° |
| 2026-04-22 16:40 | 60.31931 | 24.96024 | 161 ft | 11 kts | 137° |
| 2026-04-22 16:40 | 60.31869 | 24.96127 | 161 ft | 12 kts | 144° |
| 2026-04-22 16:40 | 60.31754 | 24.95961 | 161 ft | 9 kts | 227° |
| 2026-04-22 16:41 | 60.31708 | 24.95859 | 161 ft | 10 kts | 227° |
| 2026-04-22 16:41 | 60.31656 | 24.95750 | 161 ft | 10 kts | 222° |
| 2026-04-22 16:41 | 60.31596 | 24.95748 | 161 ft | 9 kts | 146° |
| 2026-04-22 16:41 | 60.31567 | 24.95800 | 161 ft | 4 kts | 137° |
| 2026-04-22 16:42 | 60.31557 | 24.95818 | 161 ft | 1 kts | 137° |
| 2026-04-22 16:42 | 60.31556 | 24.95820 | 161 ft | 0 kts | 137° |